Briefing drone pour Cusset

Rechercher une autre localisation

Conditions de vol :


Nous sommes le : Jeudi 30 juin 2022
Il est 20:16 UTC (22:16 LT)

Lever de soleil : 03:32 UTC (05:32 LT)
Coucher de soleil : 20:07 UTC (22:07 LT)

Météo

L'essentiel des conditions de vol

VIGILANCE MÉTÉO FRANCE - Allier (03)
Pas de vigilances particulieres
METAR de LFLV
LFLV 301800Z AUTO VRB02KT 9000 RA FEW005/// SCT022/// OVC094/// ///CB 14/13 Q1017

Date d'émission: 30/06/2022
Heure d'émission: 18:00 UTC
Vent: Variable 2 KT (4 km/h)
Visibilité horizontale: 9000 m
Plafond :
- Peu de nuages à 500ft (152m)
- Nuages épars à 2200ft (671m)
- Couvert à 9400ft (2865m)
Température: 14 °C
Point de rosée: 13 °C
Humidité: 94%
Pression (QNH): 1017 hPa
Conditions: Pluie
Prévision 24h pour Vichy (3 km)
Vent : 284° pour 1 KT (5 km/h)
Temperature Maxi: 21 °C
Temperature Min: 21 °C
Humidité : 38%
Condition : Ciel dégagé



Warning: count(): Parameter must be an array or an object that implements Countable in /homepages/6/d509196549/htdocs/droneoxygene/briefing.php on line 743
WEBCAM POUR CUSSET

Réglementation

Voler en sécurité

CARTES AERONAUTIQUE 1/500.000
CARTES VAC (LFLV)
SUP AIP




Chargement des AIP...
NOTAM (CUSSET + Terrain à proximité / FIR )




Chargement des NOTAMS...
CONTACT PREFECTURE 03


Avertissement : Les données mises à disposition sont indicatives. Oxygène Drone ne pourra être tenu responsable de dégâts causés aux biens et aux personnes.